sensor_id;sensor_type;location;lat;lon;timestamp;P1;durP1;ratioP1;P2;durP2;ratioP2
5876;SDS011;2964;42.144;24.730;2023-03-14T00:01:01;6.33;;;5.73;;
5876;SDS011;2964;42.144;24.730;2023-03-14T00:03:34;8.07;;;4.60;;
5876;SDS011;2964;42.144;24.730;2023-03-14T00:06:01;6.17;;;5.57;;
5876;SDS011;2964;42.144;24.730;2023-03-14T00:08:28;7.43;;;5.63;;
5876;SDS011;2964;42.144;24.730;2023-03-14T00:10:55;6.17;;;5.63;;
5876;SDS011;2964;42.144;24.730;2023-03-14T00:13:23;5.57;;;5.17;;
5876;SDS011;2964;42.144;24.730;2023-03-14T00:15:49;11.30;;;6.13;;
5876;SDS011;2964;42.144;24.730;2023-03-14T00:18:17;10.57;;;5.37;;
5876;SDS011;2964;42.144;24.730;2023-03-14T00:20:45;6.60;;;6.00;;
5876;SDS011;2964;42.144;24.730;2023-03-14T00:23:11;6.07;;;5.50;;
5876;SDS011;2964;42.144;24.730;2023-03-14T00:25:38;9.63;;;5.80;;
5876;SDS011;2964;42.144;24.730;2023-03-14T00:28:05;8.97;;;6.03;;
5876;SDS011;2964;42.144;24.730;2023-03-14T00:30:31;6.33;;;5.73;;
5876;SDS011;2964;42.144;24.730;2023-03-14T00:32:58;6.83;;;6.17;;
5876;SDS011;2964;42.144;24.730;2023-03-14T00:35:26;6.30;;;5.70;;
5876;SDS011;2964;42.144;24.730;2023-03-14T00:37:53;12.57;;;5.80;;
5876;SDS011;2964;42.144;24.730;2023-03-14T00:40:19;10.20;;;6.03;;
5876;SDS011;2964;42.144;24.730;2023-03-14T00:42:46;7.63;;;6.03;;
5876;SDS011;2964;42.144;24.730;2023-03-14T00:45:13;7.53;;;6.80;;
5876;SDS011;2964;42.144;24.730;2023-03-14T00:47:39;12.50;;;6.33;;
5876;SDS011;2964;42.144;24.730;2023-03-14T00:50:10;8.43;;;6.37;;
5876;SDS011;2964;42.144;24.730;2023-03-14T00:52:39;7.37;;;5.60;;
5876;SDS011;2964;42.144;24.730;2023-03-14T00:55:05;9.77;;;6.73;;
5876;SDS011;2964;42.144;24.730;2023-03-14T00:57:32;6.90;;;6.30;;
5876;SDS011;2964;42.144;24.730;2023-03-14T00:59:59;7.03;;;5.87;;
5876;SDS011;2964;42.144;24.730;2023-03-14T01:02:26;6.60;;;6.00;;
5876;SDS011;2964;42.144;24.730;2023-03-14T01:04:52;7.27;;;6.57;;
5876;SDS011;2964;42.144;24.730;2023-03-14T01:07:19;7.27;;;6.57;;
5876;SDS011;2964;42.144;24.730;2023-03-14T01:09:47;11.40;;;7.27;;
5876;SDS011;2964;42.144;24.730;2023-03-14T01:12:18;8.87;;;7.73;;
5876;SDS011;2964;42.144;24.730;2023-03-14T01:14:44;11.43;;;7.43;;
5876;SDS011;2964;42.144;24.730;2023-03-14T01:17:11;9.37;;;8.47;;
5876;SDS011;2964;42.144;24.730;2023-03-14T01:19:38;9.37;;;8.10;;
5876;SDS011;2964;42.144;24.730;2023-03-14T01:22:04;8.40;;;7.63;;
5876;SDS011;2964;42.144;24.730;2023-03-14T01:24:31;15.50;;;7.93;;
5876;SDS011;2964;42.144;24.730;2023-03-14T01:26:59;9.93;;;8.47;;
5876;SDS011;2964;42.144;24.730;2023-03-14T01:29:26;9.60;;;8.63;;
5876;SDS011;2964;42.144;24.730;2023-03-14T01:31:52;8.40;;;7.53;;
5876;SDS011;2964;42.144;24.730;2023-03-14T01:34:19;11.47;;;8.43;;
5876;SDS011;2964;42.144;24.730;2023-03-14T01:36:45;14.73;;;10.17;;
5876;SDS011;2964;42.144;24.730;2023-03-14T01:39:12;9.13;;;7.67;;
5876;SDS011;2964;42.144;24.730;2023-03-14T01:41:39;13.50;;;8.53;;
5876;SDS011;2964;42.144;24.730;2023-03-14T01:44:10;8.93;;;7.87;;
5876;SDS011;2964;42.144;24.730;2023-03-14T01:46:38;12.30;;;8.83;;
5876;SDS011;2964;42.144;24.730;2023-03-14T01:49:17;11.47;;;8.20;;
5876;SDS011;2964;42.144;24.730;2023-03-14T01:51:50;8.93;;;8.13;;
5876;SDS011;2964;42.144;24.730;2023-03-14T01:54:21;11.13;;;8.53;;
5876;SDS011;2964;42.144;24.730;2023-03-14T01:56:52;10.30;;;8.90;;
5876;SDS011;2964;42.144;24.730;2023-03-14T01:59:23;9.07;;;8.17;;
5876;SDS011;2964;42.144;24.730;2023-03-14T02:01:51;9.27;;;8.20;;
5876;SDS011;2964;42.144;24.730;2023-03-14T02:04:20;12.30;;;9.17;;
5876;SDS011;2964;42.144;24.730;2023-03-14T02:06:49;9.77;;;8.77;;
5876;SDS011;2964;42.144;24.730;2023-03-14T02:09:19;12.13;;;9.57;;
5876;SDS011;2964;42.144;24.730;2023-03-14T02:11:46;12.27;;;9.13;;
5876;SDS011;2964;42.144;24.730;2023-03-14T02:14:16;13.73;;;8.77;;
5876;SDS011;2964;42.144;24.730;2023-03-14T02:16:51;9.90;;;8.90;;
5876;SDS011;2964;42.144;24.730;2023-03-14T02:19:18;11.03;;;9.00;;
5876;SDS011;2964;42.144;24.730;2023-03-14T02:21:54;10.50;;;8.90;;
5876;SDS011;2964;42.144;24.730;2023-03-14T02:24:31;10.57;;;9.47;;
5876;SDS011;2964;42.144;24.730;2023-03-14T02:27:10;12.80;;;9.53;;
5876;SDS011;2964;42.144;24.730;2023-03-14T02:29:39;11.13;;;8.70;;
5876;SDS011;2964;42.144;24.730;2023-03-14T02:32:11;12.43;;;8.53;;
5876;SDS011;2964;42.144;24.730;2023-03-14T02:34:38;10.37;;;9.20;;
5876;SDS011;2964;42.144;24.730;2023-03-14T02:37:08;9.80;;;8.80;;
5876;SDS011;2964;42.144;24.730;2023-03-14T02:39:36;11.13;;;8.90;;
5876;SDS011;2964;42.144;24.730;2023-03-14T02:42:05;10.30;;;8.83;;
5876;SDS011;2964;42.144;24.730;2023-03-14T02:44:33;10.60;;;9.50;;
5876;SDS011;2964;42.144;24.730;2023-03-14T02:47:01;9.33;;;8.37;;
5876;SDS011;2964;42.144;24.730;2023-03-14T02:49:29;10.67;;;9.53;;
5876;SDS011;2964;42.144;24.730;2023-03-14T02:51:58;11.77;;;9.93;;
5876;SDS011;2964;42.144;24.730;2023-03-14T02:54:25;14.33;;;9.83;;
5876;SDS011;2964;42.144;24.730;2023-03-14T02:56:52;14.33;;;9.30;;
5876;SDS011;2964;42.144;24.730;2023-03-14T02:59:18;12.63;;;10.23;;
5876;SDS011;2964;42.144;24.730;2023-03-14T03:01:46;14.50;;;8.90;;
5876;SDS011;2964;42.144;24.730;2023-03-14T03:04:13;13.57;;;9.20;;
5876;SDS011;2964;42.144;24.730;2023-03-14T03:06:40;10.40;;;9.30;;
5876;SDS011;2964;42.144;24.730;2023-03-14T03:09:07;15.23;;;9.37;;
5876;SDS011;2964;42.144;24.730;2023-03-14T03:11:34;11.70;;;9.17;;
5876;SDS011;2964;42.144;24.730;2023-03-14T03:14:00;11.70;;;10.50;;
5876;SDS011;2964;42.144;24.730;2023-03-14T03:16:27;14.17;;;9.87;;
5876;SDS011;2964;42.144;24.730;2023-03-14T03:18:55;11.17;;;9.93;;
5876;SDS011;2964;42.144;24.730;2023-03-14T03:21:22;11.93;;;9.80;;
5876;SDS011;2964;42.144;24.730;2023-03-14T03:23:49;10.43;;;9.20;;
5876;SDS011;2964;42.144;24.730;2023-03-14T03:26:16;12.27;;;9.33;;
5876;SDS011;2964;42.144;24.730;2023-03-14T03:28:43;12.27;;;9.67;;
5876;SDS011;2964;42.144;24.730;2023-03-14T03:31:10;10.33;;;9.33;;
5876;SDS011;2964;42.144;24.730;2023-03-14T03:33:37;12.80;;;9.87;;
5876;SDS011;2964;42.144;24.730;2023-03-14T03:36:06;11.53;;;9.17;;
5876;SDS011;2964;42.144;24.730;2023-03-14T03:38:34;11.30;;;9.83;;
5876;SDS011;2964;42.144;24.730;2023-03-14T03:41:02;12.50;;;9.90;;
5876;SDS011;2964;42.144;24.730;2023-03-14T03:43:30;15.30;;;10.30;;
5876;SDS011;2964;42.144;24.730;2023-03-14T03:45:56;12.43;;;9.70;;
5876;SDS011;2964;42.144;24.730;2023-03-14T03:48:23;12.90;;;9.97;;
5876;SDS011;2964;42.144;24.730;2023-03-14T03:50:50;14.77;;;10.50;;
5876;SDS011;2964;42.144;24.730;2023-03-14T03:53:18;13.57;;;10.43;;
5876;SDS011;2964;42.144;24.730;2023-03-14T03:55:44;12.50;;;10.83;;
5876;SDS011;2964;42.144;24.730;2023-03-14T03:58:11;13.03;;;9.33;;
5876;SDS011;2964;42.144;24.730;2023-03-14T04:00:38;13.97;;;10.07;;
5876;SDS011;2964;42.144;24.730;2023-03-14T04:03:04;11.40;;;9.97;;
5876;SDS011;2964;42.144;24.730;2023-03-14T04:05:31;18.63;;;10.57;;
5876;SDS011;2964;42.144;24.730;2023-03-14T04:07:59;12.50;;;10.40;;
5876;SDS011;2964;42.144;24.730;2023-03-14T04:10:27;13.77;;;10.40;;
5876;SDS011;2964;42.144;24.730;2023-03-14T04:12:55;20.07;;;10.37;;
5876;SDS011;2964;42.144;24.730;2023-03-14T04:15:21;12.47;;;10.47;;
5876;SDS011;2964;42.144;24.730;2023-03-14T04:17:48;11.80;;;10.03;;
5876;SDS011;2964;42.144;24.730;2023-03-14T04:20:15;13.27;;;10.07;;
5876;SDS011;2964;42.144;24.730;2023-03-14T04:22:42;21.90;;;11.00;;
5876;SDS011;2964;42.144;24.730;2023-03-14T04:25:09;14.53;;;11.10;;
5876;SDS011;2964;42.144;24.730;2023-03-14T04:27:37;15.03;;;11.33;;
5876;SDS011;2964;42.144;24.730;2023-03-14T04:30:04;14.63;;;10.23;;
5876;SDS011;2964;42.144;24.730;2023-03-14T04:32:31;18.50;;;11.27;;
5876;SDS011;2964;42.144;24.730;2023-03-14T04:34:58;19.67;;;11.00;;
5876;SDS011;2964;42.144;24.730;2023-03-14T04:37:24;17.87;;;11.33;;
5876;SDS011;2964;42.144;24.730;2023-03-14T04:39:51;23.67;;;12.07;;
5876;SDS011;2964;42.144;24.730;2023-03-14T04:42:18;16.90;;;11.03;;
5876;SDS011;2964;42.144;24.730;2023-03-14T04:44:46;23.80;;;11.83;;
5876;SDS011;2964;42.144;24.730;2023-03-14T04:47:14;18.10;;;11.43;;
5876;SDS011;2964;42.144;24.730;2023-03-14T04:49:41;15.70;;;11.53;;
5876;SDS011;2964;42.144;24.730;2023-03-14T04:52:07;17.60;;;11.63;;
5876;SDS011;2964;42.144;24.730;2023-03-14T04:54:34;14.57;;;11.70;;
5876;SDS011;2964;42.144;24.730;2023-03-14T04:57:01;25.67;;;13.03;;
5876;SDS011;2964;42.144;24.730;2023-03-14T04:59:28;19.20;;;12.20;;
5876;SDS011;2964;42.144;24.730;2023-03-14T05:01:56;18.60;;;12.20;;
5876;SDS011;2964;42.144;24.730;2023-03-14T05:04:23;24.73;;;12.67;;
5876;SDS011;2964;42.144;24.730;2023-03-14T05:06:49;22.00;;;13.00;;
5876;SDS011;2964;42.144;24.730;2023-03-14T05:09:16;15.90;;;11.80;;
5876;SDS011;2964;42.144;24.730;2023-03-14T05:11:43;21.13;;;12.17;;
5876;SDS011;2964;42.144;24.730;2023-03-14T05:14:09;18.43;;;12.87;;
5876;SDS011;2964;42.144;24.730;2023-03-14T05:16:36;16.33;;;12.30;;
5876;SDS011;2964;42.144;24.730;2023-03-14T05:19:04;21.90;;;13.23;;
5876;SDS011;2964;42.144;24.730;2023-03-14T05:21:31;19.97;;;13.27;;
5876;SDS011;2964;42.144;24.730;2023-03-14T05:23:57;26.17;;;12.87;;
5876;SDS011;2964;42.144;24.730;2023-03-14T05:26:24;20.77;;;13.70;;
5876;SDS011;2964;42.144;24.730;2023-03-14T05:28:51;24.37;;;14.10;;
5876;SDS011;2964;42.144;24.730;2023-03-14T05:31:17;19.70;;;13.17;;
5876;SDS011;2964;42.144;24.730;2023-03-14T05:33:44;25.07;;;13.70;;
5876;SDS011;2964;42.144;24.730;2023-03-14T05:36:12;20.30;;;14.23;;
5876;SDS011;2964;42.144;24.730;2023-03-14T05:38:39;23.20;;;14.00;;
5876;SDS011;2964;42.144;24.730;2023-03-14T05:41:06;27.40;;;15.03;;
5876;SDS011;2964;42.144;24.730;2023-03-14T05:43:32;26.53;;;15.47;;
5876;SDS011;2964;42.144;24.730;2023-03-14T05:45:59;24.93;;;14.03;;
5876;SDS011;2964;42.144;24.730;2023-03-14T05:48:26;29.53;;;15.77;;
5876;SDS011;2964;42.144;24.730;2023-03-14T05:50:55;25.70;;;14.43;;
5876;SDS011;2964;42.144;24.730;2023-03-14T05:53:25;23.40;;;14.07;;
5876;SDS011;2964;42.144;24.730;2023-03-14T05:55:54;22.53;;;15.57;;
5876;SDS011;2964;42.144;24.730;2023-03-14T05:58:22;18.13;;;14.00;;
5876;SDS011;2964;42.144;24.730;2023-03-14T06:00:49;25.43;;;15.60;;
5876;SDS011;2964;42.144;24.730;2023-03-14T06:03:16;21.23;;;14.50;;
5876;SDS011;2964;42.144;24.730;2023-03-14T06:05:42;25.80;;;14.43;;
5876;SDS011;2964;42.144;24.730;2023-03-14T06:08:09;29.40;;;18.60;;
5876;SDS011;2964;42.144;24.730;2023-03-14T06:10:37;20.23;;;15.00;;
5876;SDS011;2964;42.144;24.730;2023-03-14T06:13:04;21.70;;;14.33;;
5876;SDS011;2964;42.144;24.730;2023-03-14T06:15:30;24.33;;;14.07;;
5876;SDS011;2964;42.144;24.730;2023-03-14T06:17:58;22.80;;;14.30;;
5876;SDS011;2964;42.144;24.730;2023-03-14T06:20:24;17.43;;;13.70;;
5876;SDS011;2964;42.144;24.730;2023-03-14T06:22:51;15.83;;;13.77;;
5876;SDS011;2964;42.144;24.730;2023-03-14T06:25:18;18.03;;;13.43;;
5876;SDS011;2964;42.144;24.730;2023-03-14T06:27:46;20.80;;;13.50;;
5876;SDS011;2964;42.144;24.730;2023-03-14T06:30:13;20.43;;;12.83;;
5876;SDS011;2964;42.144;24.730;2023-03-14T06:32:40;17.93;;;13.33;;
5876;SDS011;2964;42.144;24.730;2023-03-14T06:35:07;17.33;;;13.93;;
5876;SDS011;2964;42.144;24.730;2023-03-14T06:37:34;23.90;;;14.23;;
5876;SDS011;2964;42.144;24.730;2023-03-14T06:40:00;18.70;;;13.90;;
5876;SDS011;2964;42.144;24.730;2023-03-14T06:42:27;30.23;;;16.80;;
5876;SDS011;2964;42.144;24.730;2023-03-14T06:44:55;42.70;;;13.90;;
5876;SDS011;2964;42.144;24.730;2023-03-14T06:47:22;22.53;;;14.83;;
5876;SDS011;2964;42.144;24.730;2023-03-14T06:49:49;23.43;;;14.80;;
5876;SDS011;2964;42.144;24.730;2023-03-14T06:52:15;30.87;;;16.17;;
5876;SDS011;2964;42.144;24.730;2023-03-14T06:54:42;25.47;;;17.07;;
5876;SDS011;2964;42.144;24.730;2023-03-14T06:57:09;34.87;;;17.40;;
5876;SDS011;2964;42.144;24.730;2023-03-14T06:59:35;28.97;;;16.43;;
5876;SDS011;2964;42.144;24.730;2023-03-14T07:02:03;24.60;;;16.40;;
5876;SDS011;2964;42.144;24.730;2023-03-14T07:04:30;22.43;;;15.27;;
5876;SDS011;2964;42.144;24.730;2023-03-14T07:06:57;23.33;;;15.43;;
5876;SDS011;2964;42.144;24.730;2023-03-14T07:09:23;20.70;;;14.97;;
5876;SDS011;2964;42.144;24.730;2023-03-14T07:11:50;33.63;;;17.03;;
5876;SDS011;2964;42.144;24.730;2023-03-14T07:14:16;21.17;;;14.43;;
5876;SDS011;2964;42.144;24.730;2023-03-14T07:16:43;49.07;;;15.77;;
5876;SDS011;2964;42.144;24.730;2023-03-14T07:19:11;20.10;;;14.80;;
5876;SDS011;2964;42.144;24.730;2023-03-14T07:21:38;21.80;;;15.07;;
5876;SDS011;2964;42.144;24.730;2023-03-14T07:24:05;24.57;;;14.50;;
5876;SDS011;2964;42.144;24.730;2023-03-14T07:26:32;29.50;;;14.90;;
5876;SDS011;2964;42.144;24.730;2023-03-14T07:28:58;22.80;;;14.17;;
5876;SDS011;2964;42.144;24.730;2023-03-14T07:31:25;23.17;;;14.53;;
5876;SDS011;2964;42.144;24.730;2023-03-14T07:33:52;30.20;;;14.80;;
5876;SDS011;2964;42.144;24.730;2023-03-14T07:36:20;24.63;;;14.43;;
5876;SDS011;2964;42.144;24.730;2023-03-14T07:38:46;27.10;;;15.03;;
5876;SDS011;2964;42.144;24.730;2023-03-14T07:41:13;23.83;;;14.60;;
5876;SDS011;2964;42.144;24.730;2023-03-14T07:43:40;18.97;;;12.57;;
5876;SDS011;2964;42.144;24.730;2023-03-14T07:46:07;14.43;;;12.97;;
5876;SDS011;2964;42.144;24.730;2023-03-14T07:48:34;25.43;;;13.77;;
5876;SDS011;2964;42.144;24.730;2023-03-14T07:51:00;18.43;;;14.43;;
5876;SDS011;2964;42.144;24.730;2023-03-14T07:53:28;22.67;;;15.00;;
5876;SDS011;2964;42.144;24.730;2023-03-14T07:55:55;23.73;;;13.80;;
5876;SDS011;2964;42.144;24.730;2023-03-14T07:58:22;26.43;;;13.47;;
5876;SDS011;2964;42.144;24.730;2023-03-14T08:00:49;19.83;;;14.00;;
5876;SDS011;2964;42.144;24.730;2023-03-14T08:03:16;18.93;;;11.77;;
5876;SDS011;2964;42.144;24.730;2023-03-14T08:05:43;15.33;;;11.60;;
5876;SDS011;2964;42.144;24.730;2023-03-14T08:08:12;20.83;;;12.97;;
5876;SDS011;2964;42.144;24.730;2023-03-14T08:10:41;22.57;;;12.83;;
5876;SDS011;2964;42.144;24.730;2023-03-14T08:13:08;17.30;;;12.10;;
5876;SDS011;2964;42.144;24.730;2023-03-14T08:15:36;28.57;;;13.43;;
5876;SDS011;2964;42.144;24.730;2023-03-14T08:18:03;18.93;;;12.90;;
5876;SDS011;2964;42.144;24.730;2023-03-14T08:20:30;19.03;;;12.90;;
5876;SDS011;2964;42.144;24.730;2023-03-14T08:22:57;20.37;;;13.17;;
5876;SDS011;2964;42.144;24.730;2023-03-14T08:25:24;14.17;;;12.13;;
5876;SDS011;2964;42.144;24.730;2023-03-14T08:27:53;14.33;;;12.10;;
5876;SDS011;2964;42.144;24.730;2023-03-14T08:30:20;23.73;;;13.47;;
5876;SDS011;2964;42.144;24.730;2023-03-14T08:32:48;24.03;;;12.73;;
5876;SDS011;2964;42.144;24.730;2023-03-14T08:35:14;26.87;;;13.93;;
5876;SDS011;2964;42.144;24.730;2023-03-14T08:37:41;21.33;;;12.70;;
5876;SDS011;2964;42.144;24.730;2023-03-14T08:40:08;20.33;;;13.03;;
5876;SDS011;2964;42.144;24.730;2023-03-14T08:42:36;18.37;;;12.30;;
5876;SDS011;2964;42.144;24.730;2023-03-14T08:45:06;16.17;;;12.57;;
5876;SDS011;2964;42.144;24.730;2023-03-14T08:47:34;17.80;;;13.37;;
5876;SDS011;2964;42.144;24.730;2023-03-14T08:50:00;14.27;;;12.10;;
5876;SDS011;2964;42.144;24.730;2023-03-14T08:52:27;17.13;;;11.97;;
5876;SDS011;2964;42.144;24.730;2023-03-14T08:54:55;18.53;;;11.87;;
5876;SDS011;2964;42.144;24.730;2023-03-14T08:57:22;11.87;;;10.70;;
5876;SDS011;2964;42.144;24.730;2023-03-14T08:59:52;13.87;;;12.30;;
5876;SDS011;2964;42.144;24.730;2023-03-14T09:02:20;13.50;;;12.03;;
5876;SDS011;2964;42.144;24.730;2023-03-14T09:04:47;13.77;;;12.27;;
5876;SDS011;2964;42.144;24.730;2023-03-14T09:07:14;21.60;;;11.57;;
5876;SDS011;2964;42.144;24.730;2023-03-14T09:09:40;19.33;;;12.27;;
5876;SDS011;2964;42.144;24.730;2023-03-14T09:12:07;14.73;;;12.17;;
5876;SDS011;2964;42.144;24.730;2023-03-14T09:14:34;16.23;;;11.73;;
5876;SDS011;2964;42.144;24.730;2023-03-14T09:17:02;13.70;;;11.07;;
5876;SDS011;2964;42.144;24.730;2023-03-14T09:19:30;16.83;;;11.03;;
5876;SDS011;2964;42.144;24.730;2023-03-14T09:21:57;13.97;;;10.30;;
5876;SDS011;2964;42.144;24.730;2023-03-14T09:24:24;11.70;;;10.20;;
5876;SDS011;2964;42.144;24.730;2023-03-14T09:26:50;12.13;;;9.27;;
5876;SDS011;2964;42.144;24.730;2023-03-14T09:29:17;15.77;;;10.40;;
5876;SDS011;2964;42.144;24.730;2023-03-14T09:31:45;11.47;;;10.07;;
5876;SDS011;2964;42.144;24.730;2023-03-14T09:34:11;10.20;;;9.23;;
5876;SDS011;2964;42.144;24.730;2023-03-14T09:36:39;11.43;;;9.43;;
5876;SDS011;2964;42.144;24.730;2023-03-14T09:39:06;12.20;;;9.47;;
5876;SDS011;2964;42.144;24.730;2023-03-14T09:41:33;10.77;;;8.67;;
5876;SDS011;2964;42.144;24.730;2023-03-14T09:44:03;9.80;;;8.80;;
5876;SDS011;2964;42.144;24.730;2023-03-14T09:46:31;12.03;;;8.77;;
5876;SDS011;2964;42.144;24.730;2023-03-14T09:49:01;8.73;;;8.00;;
5876;SDS011;2964;42.144;24.730;2023-03-14T09:51:29;15.33;;;9.00;;
5876;SDS011;2964;42.144;24.730;2023-03-14T09:53:58;13.23;;;8.73;;
5876;SDS011;2964;42.144;24.730;2023-03-14T09:56:26;8.77;;;8.00;;
5876;SDS011;2964;42.144;24.730;2023-03-14T09:58:57;8.03;;;7.43;;
5876;SDS011;2964;42.144;24.730;2023-03-14T10:01:26;10.67;;;8.17;;
5876;SDS011;2964;42.144;24.730;2023-03-14T10:03:55;9.00;;;8.33;;
5876;SDS011;2964;42.144;24.730;2023-03-14T10:06:25;7.40;;;6.90;;
5876;SDS011;2964;42.144;24.730;2023-03-14T10:08:53;9.87;;;9.07;;
5876;SDS011;2964;42.144;24.730;2023-03-14T10:11:23;11.47;;;7.77;;
5876;SDS011;2964;42.144;24.730;2023-03-14T10:14:01;12.50;;;7.70;;
5876;SDS011;2964;42.144;24.730;2023-03-14T10:16:34;8.93;;;8.13;;
5876;SDS011;2964;42.144;24.730;2023-03-14T10:19:03;8.30;;;7.67;;
5876;SDS011;2964;42.144;24.730;2023-03-14T10:21:35;9.40;;;7.90;;
5876;SDS011;2964;42.144;24.730;2023-03-14T10:24:15;9.23;;;8.53;;
5876;SDS011;2964;42.144;24.730;2023-03-14T10:26:48;7.50;;;6.60;;
5876;SDS011;2964;42.144;24.730;2023-03-14T10:29:16;10.00;;;6.63;;
5876;SDS011;2964;42.144;24.730;2023-03-14T10:31:47;12.23;;;6.43;;
5876;SDS011;2964;42.144;24.730;2023-03-14T10:34:17;6.53;;;5.70;;
5876;SDS011;2964;42.144;24.730;2023-03-14T10:36:51;6.47;;;6.07;;
5876;SDS011;2964;42.144;24.730;2023-03-14T10:39:24;6.93;;;6.43;;
5876;SDS011;2964;42.144;24.730;2023-03-14T10:41:55;7.43;;;6.93;;
5876;SDS011;2964;42.144;24.730;2023-03-14T10:44:30;7.77;;;7.17;;
5876;SDS011;2964;42.144;24.730;2023-03-14T10:46:58;9.37;;;7.73;;
5876;SDS011;2964;42.144;24.730;2023-03-14T10:49:28;7.30;;;6.80;;
5876;SDS011;2964;42.144;24.730;2023-03-14T10:51:56;7.97;;;7.37;;
5876;SDS011;2964;42.144;24.730;2023-03-14T10:54:29;8.93;;;6.47;;
5876;SDS011;2964;42.144;24.730;2023-03-14T10:56:58;8.30;;;6.20;;
5876;SDS011;2964;42.144;24.730;2023-03-14T10:59:27;7.60;;;7.10;;
5876;SDS011;2964;42.144;24.730;2023-03-14T11:01:59;11.90;;;7.20;;
5876;SDS011;2964;42.144;24.730;2023-03-14T11:04:43;7.10;;;6.57;;
5876;SDS011;2964;42.144;24.730;2023-03-14T11:07:21;9.40;;;8.60;;
5876;SDS011;2964;42.144;24.730;2023-03-14T11:09:54;7.37;;;6.77;;
5876;SDS011;2964;42.144;24.730;2023-03-14T11:12:31;7.47;;;6.87;;
5876;SDS011;2964;42.144;24.730;2023-03-14T11:15:10;7.83;;;7.23;;
5876;SDS011;2964;42.144;24.730;2023-03-14T11:17:46;15.07;;;7.67;;
5876;SDS011;2964;42.144;24.730;2023-03-14T11:20:28;6.90;;;6.50;;
5876;SDS011;2964;42.144;24.730;2023-03-14T11:23:02;7.83;;;7.23;;
5876;SDS011;2964;42.144;24.730;2023-03-14T11:25:38;7.63;;;7.17;;
5876;SDS011;2964;42.144;24.730;2023-03-14T11:28:16;7.67;;;6.77;;
5876;SDS011;2964;42.144;24.730;2023-03-14T11:30:50;7.80;;;7.17;;
5876;SDS011;2964;42.144;24.730;2023-03-14T11:33:21;8.30;;;7.10;;
5876;SDS011;2964;42.144;24.730;2023-03-14T11:35:53;6.97;;;6.47;;
5876;SDS011;2964;42.144;24.730;2023-03-14T11:38:28;7.17;;;6.67;;
5876;SDS011;2964;42.144;24.730;2023-03-14T11:40:57;10.43;;;7.00;;
5876;SDS011;2964;42.144;24.730;2023-03-14T11:43:28;6.17;;;5.87;;
5876;SDS011;2964;42.144;24.730;2023-03-14T11:45:57;7.67;;;7.00;;
5876;SDS011;2964;42.144;24.730;2023-03-14T11:48:32;7.57;;;5.50;;
5876;SDS011;2964;42.144;24.730;2023-03-14T11:51:07;5.70;;;5.30;;
5876;SDS011;2964;42.144;24.730;2023-03-14T11:53:47;5.53;;;5.13;;
5876;SDS011;2964;42.144;24.730;2023-03-14T11:56:20;5.70;;;5.47;;
5876;SDS011;2964;42.144;24.730;2023-03-14T11:58:55;5.70;;;5.30;;
5876;SDS011;2964;42.144;24.730;2023-03-14T12:01:27;6.30;;;5.80;;
5876;SDS011;2964;42.144;24.730;2023-03-14T12:04:09;6.13;;;5.63;;
5876;SDS011;2964;42.144;24.730;2023-03-14T12:06:46;5.37;;;4.97;;
5876;SDS011;2964;42.144;24.730;2023-03-14T12:09:15;6.33;;;5.87;;
5876;SDS011;2964;42.144;24.730;2023-03-14T12:11:44;6.00;;;5.40;;
5876;SDS011;2964;42.144;24.730;2023-03-14T12:14:21;7.13;;;6.30;;
5876;SDS011;2964;42.144;24.730;2023-03-14T12:16:52;6.80;;;6.17;;
5876;SDS011;2964;42.144;24.730;2023-03-14T12:19:32;6.20;;;5.70;;
5876;SDS011;2964;42.144;24.730;2023-03-14T12:22:21;5.87;;;5.43;;
5876;SDS011;2964;42.144;24.730;2023-03-14T12:24:53;6.47;;;5.90;;
5876;SDS011;2964;42.144;24.730;2023-03-14T12:30:24;7.43;;;6.00;;
5876;SDS011;2964;42.144;24.730;2023-03-14T12:35:48;8.70;;;5.43;;
5876;SDS011;2964;42.144;24.730;2023-03-14T12:38:17;7.23;;;6.23;;
5876;SDS011;2964;42.144;24.730;2023-03-14T12:40:50;7.90;;;6.83;;
5876;SDS011;2964;42.144;24.730;2023-03-14T12:43:24;8.63;;;6.83;;
5876;SDS011;2964;42.144;24.730;2023-03-14T12:46:14;7.00;;;6.30;;
5876;SDS011;2964;42.144;24.730;2023-03-14T12:48:46;7.20;;;6.80;;
5876;SDS011;2964;42.144;24.730;2023-03-14T12:51:15;8.80;;;7.60;;
5876;SDS011;2964;42.144;24.730;2023-03-14T12:53:47;6.33;;;5.93;;
5876;SDS011;2964;42.144;24.730;2023-03-14T12:56:40;6.77;;;6.20;;
5876;SDS011;2964;42.144;24.730;2023-03-14T12:59:30;6.00;;;5.60;;
5876;SDS011;2964;42.144;24.730;2023-03-14T13:02:17;5.83;;;5.33;;
5876;SDS011;2964;42.144;24.730;2023-03-14T13:04:50;6.63;;;6.03;;
5876;SDS011;2964;42.144;24.730;2023-03-14T13:07:30;7.40;;;5.63;;
5876;SDS011;2964;42.144;24.730;2023-03-14T13:10:03;6.97;;;6.33;;
5876;SDS011;2964;42.144;24.730;2023-03-14T13:12:48;6.50;;;5.90;;
5876;SDS011;2964;42.144;24.730;2023-03-14T13:15:18;6.50;;;5.90;;
5876;SDS011;2964;42.144;24.730;2023-03-14T13:17:49;8.63;;;5.63;;
5876;SDS011;2964;42.144;24.730;2023-03-14T13:20:18;6.10;;;5.80;;
5876;SDS011;2964;42.144;24.730;2023-03-14T13:22:49;9.40;;;6.07;;
5876;SDS011;2964;42.144;24.730;2023-03-14T13:25:16;6.77;;;6.17;;
5876;SDS011;2964;42.144;24.730;2023-03-14T13:27:46;6.00;;;5.57;;
5876;SDS011;2964;42.144;24.730;2023-03-14T13:30:23;6.13;;;5.73;;
5876;SDS011;2964;42.144;24.730;2023-03-14T13:32:53;5.77;;;5.30;;
5876;SDS011;2964;42.144;24.730;2023-03-14T13:35:22;7.63;;;5.90;;
5876;SDS011;2964;42.144;24.730;2023-03-14T13:37:55;6.70;;;6.20;;
5876;SDS011;2964;42.144;24.730;2023-03-14T13:40:24;8.63;;;6.50;;
5876;SDS011;2964;42.144;24.730;2023-03-14T13:43:06;7.43;;;6.83;;
5876;SDS011;2964;42.144;24.730;2023-03-14T13:45:47;6.97;;;6.57;;
5876;SDS011;2964;42.144;24.730;2023-03-14T13:48:17;7.43;;;6.85;;
5876;SDS011;2964;42.144;24.730;2023-03-14T13:50:49;7.13;;;5.97;;
5876;SDS011;2964;42.144;24.730;2023-03-14T13:53:17;6.77;;;6.17;;
5876;SDS011;2964;42.144;24.730;2023-03-14T13:55:44;7.00;;;6.50;;
5876;SDS011;2964;42.144;24.730;2023-03-14T13:58:12;6.40;;;6.10;;
5876;SDS011;2964;42.144;24.730;2023-03-14T14:00:53;7.07;;;6.03;;
5876;SDS011;2964;42.144;24.730;2023-03-14T14:03:23;6.50;;;6.07;;
5876;SDS011;2964;42.144;24.730;2023-03-14T14:05:50;6.20;;;5.80;;
5876;SDS011;2964;42.144;24.730;2023-03-14T14:08:17;6.70;;;6.07;;
5876;SDS011;2964;42.144;24.730;2023-03-14T14:10:44;7.17;;;6.03;;
5876;SDS011;2964;42.144;24.730;2023-03-14T14:13:14;6.83;;;6.20;;
5876;SDS011;2964;42.144;24.730;2023-03-14T14:15:44;6.40;;;5.97;;
5876;SDS011;2964;42.144;24.730;2023-03-14T14:18:15;6.13;;;5.73;;
5876;SDS011;2964;42.144;24.730;2023-03-14T14:20:47;5.87;;;5.37;;
5876;SDS011;2964;42.144;24.730;2023-03-14T14:23:15;5.67;;;5.17;;
5876;SDS011;2964;42.144;24.730;2023-03-14T14:25:50;5.63;;;5.23;;
5876;SDS011;2964;42.144;24.730;2023-03-14T14:28:17;9.40;;;5.63;;
5876;SDS011;2964;42.144;24.730;2023-03-14T14:30:58;6.33;;;5.77;;
5876;SDS011;2964;42.144;24.730;2023-03-14T14:33:26;6.10;;;5.50;;
5876;SDS011;2964;42.144;24.730;2023-03-14T14:35:55;5.90;;;5.50;;
5876;SDS011;2964;42.144;24.730;2023-03-14T14:38:24;6.87;;;5.53;;
5876;SDS011;2964;42.144;24.730;2023-03-14T14:40:52;6.80;;;6.00;;
5876;SDS011;2964;42.144;24.730;2023-03-14T14:43:22;6.37;;;5.37;;
5876;SDS011;2964;42.144;24.730;2023-03-14T14:45:50;6.60;;;6.10;;
5876;SDS011;2964;42.144;24.730;2023-03-14T14:48:21;5.77;;;5.43;;
5876;SDS011;2964;42.144;24.730;2023-03-14T14:50:49;6.17;;;5.67;;
5876;SDS011;2964;42.144;24.730;2023-03-14T14:53:26;5.60;;;5.10;;
5876;SDS011;2964;42.144;24.730;2023-03-14T14:55:56;5.67;;;5.20;;
5876;SDS011;2964;42.144;24.730;2023-03-14T14:58:26;6.43;;;5.77;;
5876;SDS011;2964;42.144;24.730;2023-03-14T15:00:56;6.87;;;6.20;;
5876;SDS011;2964;42.144;24.730;2023-03-14T15:03:26;6.93;;;6.33;;
5876;SDS011;2964;42.144;24.730;2023-03-14T15:05:56;6.47;;;6.17;;